sensor_id;sensor_type;location;lat;lon;timestamp;pressure;altitude;pressure_sealevel;temperature;humidity
63321;BME280;49449;48.800;9.534;2022-08-18T00:06:02;98290.34;;;20.60;45.68
63321;BME280;49449;48.800;9.534;2022-08-18T00:08:35;98297.50;;;20.65;45.56
63321;BME280;49449;48.800;9.534;2022-08-18T00:11:04;98294.22;;;20.68;45.51
63321;BME280;49449;48.800;9.534;2022-08-18T00:13:35;98291.25;;;20.69;45.50
63321;BME280;49449;48.800;9.534;2022-08-18T00:16:03;98285.56;;;20.71;45.54
63321;BME280;49449;48.800;9.534;2022-08-18T00:18:31;98280.22;;;20.71;45.70
63321;BME280;49449;48.800;9.534;2022-08-18T00:20:59;98275.06;;;20.60;46.08
63321;BME280;49449;48.800;9.534;2022-08-18T00:23:27;98274.75;;;20.62;45.67
63321;BME280;49449;48.800;9.534;2022-08-18T00:25:57;98262.41;;;20.61;45.70
63321;BME280;49449;48.800;9.534;2022-08-18T00:28:26;98262.91;;;20.63;45.98
63321;BME280;49449;48.800;9.534;2022-08-18T00:30:55;98254.66;;;20.59;46.37
63321;BME280;49449;48.800;9.534;2022-08-18T00:33:22;98259.34;;;20.54;46.27
63321;BME280;49449;48.800;9.534;2022-08-18T00:35:50;98254.69;;;20.46;46.26
63321;BME280;49449;48.800;9.534;2022-08-18T00:38:18;98253.22;;;20.39;47.13
63321;BME280;49449;48.800;9.534;2022-08-18T00:40:49;98257.19;;;20.28;46.99
63321;BME280;49449;48.800;9.534;2022-08-18T00:43:20;98263.91;;;20.26;47.22
63321;BME280;49449;48.800;9.534;2022-08-18T00:45:48;98261.31;;;20.20;47.39
63321;BME280;49449;48.800;9.534;2022-08-18T00:48:17;98261.63;;;20.19;48.01
63321;BME280;49449;48.800;9.534;2022-08-18T00:50:49;98258.66;;;20.20;47.56
63321;BME280;49449;48.800;9.534;2022-08-18T00:53:36;98249.72;;;20.25;47.68
63321;BME280;49449;48.800;9.534;2022-08-18T00:56:10;98238.09;;;20.30;47.41
63321;BME280;49449;48.800;9.534;2022-08-18T00:58:43;98236.09;;;20.35;47.37
63321;BME280;49449;48.800;9.534;2022-08-18T01:01:15;98236.00;;;20.40;46.83
63321;BME280;49449;48.800;9.534;2022-08-18T01:03:45;98237.81;;;20.45;46.71
63321;BME280;49449;48.800;9.534;2022-08-18T01:06:25;98236.38;;;20.48;46.71
63321;BME280;49449;48.800;9.534;2022-08-18T01:08:54;98237.69;;;20.50;46.83
63321;BME280;49449;48.800;9.534;2022-08-18T01:11:22;98231.22;;;20.51;46.73
63321;BME280;49449;48.800;9.534;2022-08-18T01:13:50;98230.13;;;20.52;47.21
63321;BME280;49449;48.800;9.534;2022-08-18T01:16:19;98223.38;;;20.55;47.10
63321;BME280;49449;48.800;9.534;2022-08-18T01:19:06;98224.16;;;20.55;47.29
63321;BME280;49449;48.800;9.534;2022-08-18T01:21:58;98227.63;;;20.56;47.05
63321;BME280;49449;48.800;9.534;2022-08-18T01:24:33;98217.69;;;20.56;47.28
63321;BME280;49449;48.800;9.534;2022-08-18T01:27:20;98225.56;;;20.39;47.23
63321;BME280;49449;48.800;9.534;2022-08-18T01:29:48;98220.44;;;20.42;46.99
63321;BME280;49449;48.800;9.534;2022-08-18T01:32:19;98209.06;;;20.46;46.38
63321;BME280;49449;48.800;9.534;2022-08-18T01:34:48;98201.84;;;20.46;46.71
63321;BME280;49449;48.800;9.534;2022-08-18T01:37:19;98195.34;;;20.47;46.51
63321;BME280;49449;48.800;9.534;2022-08-18T01:39:49;98185.94;;;20.50;46.57
63321;BME280;49449;48.800;9.534;2022-08-18T01:42:17;98174.69;;;20.48;46.43
63321;BME280;49449;48.800;9.534;2022-08-18T01:44:45;98163.94;;;20.48;46.55
63321;BME280;49449;48.800;9.534;2022-08-18T01:47:14;98156.53;;;20.45;46.59
63321;BME280;49449;48.800;9.534;2022-08-18T01:49:43;98150.34;;;20.44;46.36
63321;BME280;49449;48.800;9.534;2022-08-18T01:52:13;98148.28;;;20.41;46.67
63321;BME280;49449;48.800;9.534;2022-08-18T01:54:43;98154.94;;;20.43;46.41
63321;BME280;49449;48.800;9.534;2022-08-18T01:57:13;98143.41;;;20.43;46.41
63321;BME280;49449;48.800;9.534;2022-08-18T01:59:41;98140.53;;;20.39;46.26
63321;BME280;49449;48.800;9.534;2022-08-18T02:02:13;98130.72;;;20.35;47.00
63321;BME280;49449;48.800;9.534;2022-08-18T02:04:43;98132.91;;;20.33;46.82
63321;BME280;49449;48.800;9.534;2022-08-18T02:07:12;98130.22;;;20.33;46.42
63321;BME280;49449;48.800;9.534;2022-08-18T02:09:41;98121.38;;;20.32;46.25
63321;BME280;49449;48.800;9.534;2022-08-18T02:12:10;98123.06;;;20.28;46.46
63321;BME280;49449;48.800;9.534;2022-08-18T02:14:39;98126.34;;;20.25;46.67
63321;BME280;49449;48.800;9.534;2022-08-18T02:17:09;98133.50;;;20.16;47.08
63321;BME280;49449;48.800;9.534;2022-08-18T02:19:39;98132.03;;;20.10;47.31
63321;BME280;49449;48.800;9.534;2022-08-18T02:22:09;98145.13;;;20.11;47.78
63321;BME280;49449;48.800;9.534;2022-08-18T02:24:38;98139.97;;;20.01;47.59
63321;BME280;49449;48.800;9.534;2022-08-18T02:27:06;98142.16;;;19.99;47.20
63321;BME280;49449;48.800;9.534;2022-08-18T02:29:34;98141.78;;;19.92;47.65
63321;BME280;49449;48.800;9.534;2022-08-18T02:32:04;98137.81;;;19.89;47.50
63321;BME280;49449;48.800;9.534;2022-08-18T02:34:33;98137.81;;;19.89;47.48
63321;BME280;49449;48.800;9.534;2022-08-18T02:37:01;98136.22;;;19.88;47.22
63321;BME280;49449;48.800;9.534;2022-08-18T02:39:29;98126.50;;;19.78;46.98
63321;BME280;49449;48.800;9.534;2022-08-18T02:41:59;98128.97;;;19.75;47.20
63321;BME280;49449;48.800;9.534;2022-08-18T02:44:27;98132.25;;;19.72;47.30
63321;BME280;49449;48.800;9.534;2022-08-18T02:46:57;98138.31;;;19.77;47.47
63321;BME280;49449;48.800;9.534;2022-08-18T02:49:26;98137.81;;;19.61;48.30
63321;BME280;49449;48.800;9.534;2022-08-18T02:51:54;98142.22;;;19.52;47.88
63321;BME280;49449;48.800;9.534;2022-08-18T02:54:23;98150.09;;;19.62;47.55
63321;BME280;49449;48.800;9.534;2022-08-18T02:56:51;98154.28;;;19.69;47.43
63321;BME280;49449;48.800;9.534;2022-08-18T02:59:21;98156.16;;;19.68;47.49
63321;BME280;49449;48.800;9.534;2022-08-18T03:01:52;98153.78;;;19.66;47.41
63321;BME280;49449;48.800;9.534;2022-08-18T03:04:21;98158.63;;;19.64;47.90
63321;BME280;49449;48.800;9.534;2022-08-18T03:06:58;98157.13;;;19.58;47.74
63321;BME280;49449;48.800;9.534;2022-08-18T03:09:27;98154.09;;;19.65;47.66
63321;BME280;49449;48.800;9.534;2022-08-18T03:11:56;98147.03;;;19.69;47.18
63321;BME280;49449;48.800;9.534;2022-08-18T03:14:24;98140.47;;;19.75;47.12
63321;BME280;49449;48.800;9.534;2022-08-18T03:16:52;98146.03;;;19.79;47.55
63321;BME280;49449;48.800;9.534;2022-08-18T03:19:21;98142.28;;;19.80;47.59
63321;BME280;49449;48.800;9.534;2022-08-18T03:21:49;98132.25;;;19.85;47.02
63321;BME280;49449;48.800;9.534;2022-08-18T03:24:19;98134.63;;;19.87;47.19
63321;BME280;49449;48.800;9.534;2022-08-18T03:26:47;98126.59;;;19.87;47.39
63321;BME280;49449;48.800;9.534;2022-08-18T03:29:15;98132.63;;;19.79;46.87
63321;BME280;49449;48.800;9.534;2022-08-18T03:31:43;98135.31;;;19.79;47.23
63321;BME280;49449;48.800;9.534;2022-08-18T03:34:17;98135.63;;;19.77;47.20
63321;BME280;49449;48.800;9.534;2022-08-18T03:36:46;98131.47;;;19.71;47.29
63321;BME280;49449;48.800;9.534;2022-08-18T03:39:16;98127.69;;;19.72;47.43
63321;BME280;49449;48.800;9.534;2022-08-18T03:41:45;98126.97;;;19.66;47.24
63321;BME280;49449;48.800;9.534;2022-08-18T03:44:14;98120.84;;;19.66;47.37
63321;BME280;49449;48.800;9.534;2022-08-18T03:46:44;98119.63;;;19.58;47.71
63321;BME280;49449;48.800;9.534;2022-08-18T03:49:12;98116.88;;;19.63;47.50
63321;BME280;49449;48.800;9.534;2022-08-18T03:51:41;98117.06;;;19.67;47.04
63321;BME280;49449;48.800;9.534;2022-08-18T03:54:13;98111.41;;;19.69;47.72
63321;BME280;49449;48.800;9.534;2022-08-18T03:56:43;98119.34;;;19.60;47.55
63321;BME280;49449;48.800;9.534;2022-08-18T03:59:14;98118.59;;;19.54;47.65
63321;BME280;49449;48.800;9.534;2022-08-18T04:01:44;98124.50;;;19.56;47.20
63321;BME280;49449;48.800;9.534;2022-08-18T04:04:14;98118.53;;;19.45;47.76
63321;BME280;49449;48.800;9.534;2022-08-18T04:06:44;98113.38;;;19.49;47.44
63321;BME280;49449;48.800;9.534;2022-08-18T04:09:17;98112.84;;;19.47;47.53
63321;BME280;49449;48.800;9.534;2022-08-18T04:11:45;98112.66;;;19.43;47.42
63321;BME280;49449;48.800;9.534;2022-08-18T04:14:17;98119.41;;;19.41;47.35
63321;BME280;49449;48.800;9.534;2022-08-18T04:16:45;98132.09;;;19.35;47.57
63321;BME280;49449;48.800;9.534;2022-08-18T04:19:15;98130.00;;;19.32;47.43
63321;BME280;49449;48.800;9.534;2022-08-18T04:21:44;98138.00;;;19.18;48.09
63321;BME280;49449;48.800;9.534;2022-08-18T04:24:14;98136.13;;;19.05;48.42
63321;BME280;49449;48.800;9.534;2022-08-18T04:26:46;98137.88;;;19.09;48.24
63321;BME280;49449;48.800;9.534;2022-08-18T04:29:17;98135.53;;;19.22;47.55
63321;BME280;49449;48.800;9.534;2022-08-18T04:31:47;98140.69;;;19.18;47.58
63321;BME280;49449;48.800;9.534;2022-08-18T04:34:16;98144.34;;;19.22;47.21
63321;BME280;49449;48.800;9.534;2022-08-18T04:36:44;98131.59;;;19.19;47.49
63321;BME280;49449;48.800;9.534;2022-08-18T04:39:12;98140.09;;;19.21;47.65
63321;BME280;49449;48.800;9.534;2022-08-18T04:41:42;98145.84;;;19.15;47.42
63321;BME280;49449;48.800;9.534;2022-08-18T04:44:11;98146.00;;;19.04;48.18
63321;BME280;49449;48.800;9.534;2022-08-18T04:46:44;98158.03;;;19.07;48.00
63321;BME280;49449;48.800;9.534;2022-08-18T04:49:13;98157.94;;;19.12;47.37
63321;BME280;49449;48.800;9.534;2022-08-18T04:51:44;98162.78;;;19.10;47.61
63321;BME280;49449;48.800;9.534;2022-08-18T04:54:34;98166.47;;;19.14;47.32
63321;BME280;49449;48.800;9.534;2022-08-18T04:57:07;98176.59;;;19.17;46.80
63321;BME280;49449;48.800;9.534;2022-08-18T04:59:36;98163.63;;;19.24;46.35
63321;BME280;49449;48.800;9.534;2022-08-18T05:02:07;98164.34;;;19.30;46.72
63321;BME280;49449;48.800;9.534;2022-08-18T05:04:39;98172.97;;;19.41;46.76
63321;BME280;49449;48.800;9.534;2022-08-18T05:07:09;98174.00;;;19.59;46.00
63321;BME280;49449;48.800;9.534;2022-08-18T05:09:38;98170.56;;;19.72;45.37
63321;BME280;49449;48.800;9.534;2022-08-18T05:12:09;98171.16;;;19.83;45.33
63321;BME280;49449;48.800;9.534;2022-08-18T05:14:37;98166.59;;;19.97;45.42
63321;BME280;49449;48.800;9.534;2022-08-18T05:17:06;98164.69;;;19.98;45.16
63321;BME280;49449;48.800;9.534;2022-08-18T05:19:34;98162.59;;;19.95;45.58
63321;BME280;49449;48.800;9.534;2022-08-18T05:22:02;98155.09;;;19.97;45.89
63321;BME280;49449;48.800;9.534;2022-08-18T05:24:32;98148.22;;;20.04;45.17
63321;BME280;49449;48.800;9.534;2022-08-18T05:27:02;98155.84;;;20.25;44.96
63321;BME280;49449;48.800;9.534;2022-08-18T05:29:30;98152.44;;;20.47;44.40
63321;BME280;49449;48.800;9.534;2022-08-18T05:32:03;98162.81;;;20.63;44.24
63321;BME280;49449;48.800;9.534;2022-08-18T05:34:34;98167.59;;;20.66;43.97
63321;BME280;49449;48.800;9.534;2022-08-18T05:37:13;98166.78;;;20.65;43.93
63321;BME280;49449;48.800;9.534;2022-08-18T05:39:53;98171.09;;;20.52;44.71
63321;BME280;49449;48.800;9.534;2022-08-18T05:42:25;98159.97;;;20.59;44.61
63321;BME280;49449;48.800;9.534;2022-08-18T05:44:54;98158.59;;;20.48;44.83
63321;BME280;49449;48.800;9.534;2022-08-18T05:47:25;98157.88;;;20.56;44.27
63321;BME280;49449;48.800;9.534;2022-08-18T05:49:56;98165.09;;;20.69;44.07
63321;BME280;49449;48.800;9.534;2022-08-18T05:52:31;98160.28;;;20.80;43.75
63321;BME280;49449;48.800;9.534;2022-08-18T05:55:03;98154.78;;;20.85;43.12
63321;BME280;49449;48.800;9.534;2022-08-18T05:57:51;98156.84;;;20.88;43.08
63321;BME280;49449;48.800;9.534;2022-08-18T06:00:21;98166.56;;;20.75;43.47
63321;BME280;49449;48.800;9.534;2022-08-18T06:02:54;98168.44;;;20.75;43.86
63321;BME280;49449;48.800;9.534;2022-08-18T06:05:27;98168.03;;;20.82;43.73
63321;BME280;49449;48.800;9.534;2022-08-18T06:07:59;98168.03;;;20.82;44.01
63321;BME280;49449;48.800;9.534;2022-08-18T06:10:30;98177.00;;;20.77;43.62
63321;BME280;49449;48.800;9.534;2022-08-18T06:13:00;98186.47;;;20.74;43.57
63321;BME280;49449;48.800;9.534;2022-08-18T06:15:35;98197.69;;;20.76;44.17
63321;BME280;49449;48.800;9.534;2022-08-18T06:18:24;98192.97;;;20.82;44.14
63321;BME280;49449;48.800;9.534;2022-08-18T06:21:19;98189.78;;;20.94;43.96
63321;BME280;49449;48.800;9.534;2022-08-18T06:23:58;98190.41;;;21.13;43.47
63321;BME280;49449;48.800;9.534;2022-08-18T06:26:33;98186.84;;;21.27;42.95
63321;BME280;49449;48.800;9.534;2022-08-18T06:29:16;98173.22;;;21.23;42.57
63321;BME280;49449;48.800;9.534;2022-08-18T06:31:57;98171.25;;;21.37;43.36
63321;BME280;49449;48.800;9.534;2022-08-18T06:34:35;98173.75;;;21.57;42.73
63321;BME280;49449;48.800;9.534;2022-08-18T06:37:15;98171.75;;;21.71;42.49
63321;BME280;49449;48.800;9.534;2022-08-18T06:39:48;98172.25;;;21.82;42.26
63321;BME280;49449;48.800;9.534;2022-08-18T06:42:17;98177.19;;;21.88;42.31
63321;BME280;49449;48.800;9.534;2022-08-18T06:44:48;98190.81;;;21.92;41.91
63321;BME280;49449;48.800;9.534;2022-08-18T06:47:28;98200.47;;;21.93;41.72
63321;BME280;49449;48.800;9.534;2022-08-18T06:50:03;98190.31;;;21.90;41.55
63321;BME280;49449;48.800;9.534;2022-08-18T06:52:35;98182.56;;;21.88;41.36
63321;BME280;49449;48.800;9.534;2022-08-18T06:55:05;98186.38;;;21.87;41.53
63321;BME280;49449;48.800;9.534;2022-08-18T06:57:36;98189.84;;;21.88;41.24
63321;BME280;49449;48.800;9.534;2022-08-18T07:00:08;98192.72;;;21.91;41.39
63321;BME280;49449;48.800;9.534;2022-08-18T07:02:42;98193.19;;;21.93;41.44
63321;BME280;49449;48.800;9.534;2022-08-18T07:05:19;98186.41;;;21.96;41.50
63321;BME280;49449;48.800;9.534;2022-08-18T07:08:08;98182.91;;;21.96;41.66
63321;BME280;49449;48.800;9.534;2022-08-18T07:10:38;98175.97;;;22.03;41.58
63321;BME280;49449;48.800;9.534;2022-08-18T07:13:21;98173.13;;;22.00;41.29
63321;BME280;49449;48.800;9.534;2022-08-18T07:15:52;98171.38;;;22.04;41.48
63321;BME280;49449;48.800;9.534;2022-08-18T07:18:23;98178.66;;;22.03;41.32
63321;BME280;49449;48.800;9.534;2022-08-18T07:20:54;98166.97;;;22.08;41.13
63321;BME280;49449;48.800;9.534;2022-08-18T07:23:30;98169.03;;;22.11;41.41
63321;BME280;49449;48.800;9.534;2022-08-18T07:26:08;98179.16;;;22.14;40.93
63321;BME280;49449;48.800;9.534;2022-08-18T07:28:39;98190.28;;;22.21;40.82
63321;BME280;49449;48.800;9.534;2022-08-18T07:31:15;98196.47;;;22.22;41.16
63321;BME280;49449;48.800;9.534;2022-08-18T07:33:50;98196.91;;;22.15;41.64
63321;BME280;49449;48.800;9.534;2022-08-18T07:36:19;98190.59;;;22.20;40.52
63321;BME280;49449;48.800;9.534;2022-08-18T07:38:59;98191.22;;;22.17;39.88
63321;BME280;49449;48.800;9.534;2022-08-18T07:41:32;98188.03;;;22.15;40.17
63321;BME280;49449;48.800;9.534;2022-08-18T07:44:09;98193.72;;;22.13;39.86
63321;BME280;49449;48.800;9.534;2022-08-18T07:46:51;98196.06;;;22.06;40.13
63321;BME280;49449;48.800;9.534;2022-08-18T07:49:26;98190.53;;;22.02;40.48
63321;BME280;49449;48.800;9.534;2022-08-18T07:51:59;98203.19;;;22.02;40.47
63321;BME280;49449;48.800;9.534;2022-08-18T07:54:51;98216.47;;;21.98;40.40
63321;BME280;49449;48.800;9.534;2022-08-18T07:57:30;98223.72;;;21.98;40.66
63321;BME280;49449;48.800;9.534;2022-08-18T08:00:06;98231.88;;;21.75;41.65
63321;BME280;49449;48.800;9.534;2022-08-18T08:02:46;98238.81;;;21.53;41.66
63321;BME280;49449;48.800;9.534;2022-08-18T08:05:35;98238.94;;;21.48;42.07
63321;BME280;49449;48.800;9.534;2022-08-18T08:08:14;98236.69;;;21.55;42.21
63321;BME280;49449;48.800;9.534;2022-08-18T08:10:52;98237.94;;;21.58;42.36
63321;BME280;49449;48.800;9.534;2022-08-18T08:13:26;98231.16;;;21.61;42.38
63321;BME280;49449;48.800;9.534;2022-08-18T08:16:25;98227.06;;;21.63;42.36
63321;BME280;49449;48.800;9.534;2022-08-18T08:19:04;98226.31;;;21.71;42.15
63321;BME280;49449;48.800;9.534;2022-08-18T08:21:41;98228.41;;;21.83;41.62
63321;BME280;49449;48.800;9.534;2022-08-18T08:24:16;98224.63;;;21.84;42.08
63321;BME280;49449;48.800;9.534;2022-08-18T08:26:51;98230.47;;;21.86;41.95
63321;BME280;49449;48.800;9.534;2022-08-18T08:29:31;98232.53;;;21.81;42.69
63321;BME280;49449;48.800;9.534;2022-08-18T08:32:05;98228.53;;;21.78;42.32
63321;BME280;49449;48.800;9.534;2022-08-18T08:34:41;98215.91;;;21.79;42.82
63321;BME280;49449;48.800;9.534;2022-08-18T08:37:15;98205.16;;;21.79;42.69
63321;BME280;49449;48.800;9.534;2022-08-18T08:39:49;98187.75;;;21.76;42.98
63321;BME280;49449;48.800;9.534;2022-08-18T08:42:30;98175.75;;;21.82;42.90
63321;BME280;49449;48.800;9.534;2022-08-18T08:45:08;98174.03;;;21.86;42.67
63321;BME280;49449;48.800;9.534;2022-08-18T08:47:46;98161.06;;;21.88;42.34
63321;BME280;49449;48.800;9.534;2022-08-18T08:50:23;98157.13;;;21.95;42.09
63321;BME280;49449;48.800;9.534;2022-08-18T08:52:54;98167.75;;;22.00;41.49
63321;BME280;49449;48.800;9.534;2022-08-18T08:55:28;98176.94;;;22.07;41.65
63321;BME280;49449;48.800;9.534;2022-08-18T08:58:07;98190.53;;;22.11;41.62
63321;BME280;49449;48.800;9.534;2022-08-18T09:00:43;98194.88;;;22.21;41.05
63321;BME280;49449;48.800;9.534;2022-08-18T09:03:25;98184.59;;;22.23;41.63
63321;BME280;49449;48.800;9.534;2022-08-18T09:06:10;98189.34;;;22.35;41.25
63321;BME280;49449;48.800;9.534;2022-08-18T09:09:02;98171.50;;;22.56;40.47
63321;BME280;49449;48.800;9.534;2022-08-18T09:15:15;98172.47;;;22.95;39.24
63321;BME280;49449;48.800;9.534;2022-08-18T09:18:02;98175.75;;;23.10;39.11
63321;BME280;49449;48.800;9.534;2022-08-18T09:20:54;98163.22;;;23.14;39.22
63321;BME280;49449;48.800;9.534;2022-08-18T09:23:29;98153.06;;;23.19;38.89
63321;BME280;49449;48.800;9.534;2022-08-18T09:26:23;98155.94;;;23.14;39.01
63321;BME280;49449;48.800;9.534;2022-08-18T09:28:57;98156.91;;;23.18;39.26
63321;BME280;49449;48.800;9.534;2022-08-18T09:31:29;98163.84;;;23.19;38.97
63321;BME280;49449;48.800;9.534;2022-08-18T09:37:13;98168.25;;;23.33;38.63
63321;BME280;49449;48.800;9.534;2022-08-18T09:39:52;98163.63;;;23.51;38.73
63321;BME280;49449;48.800;9.534;2022-08-18T09:42:47;98174.72;;;23.49;38.77
63321;BME280;49449;48.800;9.534;2022-08-18T09:45:53;98165.38;;;23.55;38.51
63321;BME280;49449;48.800;9.534;2022-08-18T09:48:33;98168.19;;;23.68;38.01
63321;BME280;49449;48.800;9.534;2022-08-18T09:51:31;98166.50;;;23.84;38.39
63321;BME280;49449;48.800;9.534;2022-08-18T09:54:17;98166.97;;;23.86;38.11
63321;BME280;49449;48.800;9.534;2022-08-18T09:57:19;98166.31;;;23.89;38.04
63321;BME280;49449;48.800;9.534;2022-08-18T10:03:11;98172.66;;;23.93;37.05
63321;BME280;49449;48.800;9.534;2022-08-18T10:06:16;98177.56;;;23.91;37.71
63321;BME280;49449;48.800;9.534;2022-08-18T10:08:52;98175.56;;;23.79;37.52
63321;BME280;49449;48.800;9.534;2022-08-18T10:11:41;98172.41;;;23.77;37.69
63321;BME280;49449;48.800;9.534;2022-08-18T10:14:32;98167.81;;;23.78;38.10
63321;BME280;49449;48.800;9.534;2022-08-18T10:17:14;98157.16;;;23.81;38.07
63321;BME280;49449;48.800;9.534;2022-08-18T10:19:56;98144.28;;;23.96;37.84
63321;BME280;49449;48.800;9.534;2022-08-18T10:22:39;98138.75;;;24.13;37.31
63321;BME280;49449;48.800;9.534;2022-08-18T10:25:10;98133.97;;;24.19;37.44
63321;BME280;49449;48.800;9.534;2022-08-18T10:27:50;98137.38;;;24.28;36.96
63321;BME280;49449;48.800;9.534;2022-08-18T10:31:01;98140.94;;;24.41;37.03
63321;BME280;49449;48.800;9.534;2022-08-18T10:34:04;98121.06;;;24.67;36.23
63321;BME280;49449;48.800;9.534;2022-08-18T10:36:51;98107.84;;;24.86;36.30
63321;BME280;49449;48.800;9.534;2022-08-18T10:39:24;98101.66;;;24.86;36.08
63321;BME280;49449;48.800;9.534;2022-08-18T10:42:04;98082.91;;;25.02;35.53
63321;BME280;49449;48.800;9.534;2022-08-18T10:44:43;98070.56;;;25.25;35.07
63321;BME280;49449;48.800;9.534;2022-08-18T10:47:22;98060.88;;;25.49;35.18
63321;BME280;49449;48.800;9.534;2022-08-18T10:49:53;98070.59;;;25.62;34.34
63321;BME280;49449;48.800;9.534;2022-08-18T10:52:48;98092.53;;;25.48;34.35
63321;BME280;49449;48.800;9.534;2022-08-18T10:55:43;98100.41;;;25.17;35.04
63321;BME280;49449;48.800;9.534;2022-08-18T11:01:17;98071.56;;;25.33;34.32
63321;BME280;49449;48.800;9.534;2022-08-18T11:04:07;98087.00;;;25.20;34.74
63321;BME280;49449;48.800;9.534;2022-08-18T11:06:43;98094.13;;;25.37;35.11
63321;BME280;49449;48.800;9.534;2022-08-18T11:09:21;98084.66;;;25.43;34.72
63321;BME280;49449;48.800;9.534;2022-08-18T11:11:56;98081.19;;;25.67;34.52
63321;BME280;49449;48.800;9.534;2022-08-18T11:14:47;98067.66;;;25.80;34.12
63321;BME280;49449;48.800;9.534;2022-08-18T11:17:38;98071.00;;;25.89;34.01
63321;BME280;49449;48.800;9.534;2022-08-18T11:20:20;98067.50;;;26.01;33.68
63321;BME280;49449;48.800;9.534;2022-08-18T11:22:58;98059.59;;;25.96;33.16
63321;BME280;49449;48.800;9.534;2022-08-18T11:25:34;98054.53;;;25.94;33.29
63321;BME280;49449;48.800;9.534;2022-08-18T11:28:16;98054.22;;;25.83;33.55
63321;BME280;49449;48.800;9.534;2022-08-18T11:30:47;98062.47;;;25.75;33.82
63321;BME280;49449;48.800;9.534;2022-08-18T11:33:19;98059.53;;;25.80;33.44
63321;BME280;49449;48.800;9.534;2022-08-18T11:35:53;98055.59;;;25.65;32.98
63321;BME280;49449;48.800;9.534;2022-08-18T11:38:24;98054.81;;;25.64;33.63
63321;BME280;49449;48.800;9.534;2022-08-18T11:41:09;98068.88;;;25.70;33.24
63321;BME280;49449;48.800;9.534;2022-08-18T11:43:46;98072.16;;;25.88;33.24
63321;BME280;49449;48.800;9.534;2022-08-18T11:46:22;98066.44;;;26.05;32.65
63321;BME280;49449;48.800;9.534;2022-08-18T11:48:54;98064.41;;;26.27;31.99
63321;BME280;49449;48.800;9.534;2022-08-18T11:51:27;98044.75;;;26.30;31.40
63321;BME280;49449;48.800;9.534;2022-08-18T11:53:58;98035.25;;;26.36;31.67
63321;BME280;49449;48.800;9.534;2022-08-18T11:56:29;98037.44;;;26.31;32.27
63321;BME280;49449;48.800;9.534;2022-08-18T11:59:02;98039.03;;;26.19;32.11
63321;BME280;49449;48.800;9.534;2022-08-18T12:01:39;98036.81;;;26.09;32.54
63321;BME280;49449;48.800;9.534;2022-08-18T12:04:28;98033.63;;;26.07;32.23
63321;BME280;49449;48.800;9.534;2022-08-18T12:07:04;98025.97;;;26.09;31.22
63321;BME280;49449;48.800;9.534;2022-08-18T12:09:37;98015.59;;;26.11;31.37
63321;BME280;49449;48.800;9.534;2022-08-18T12:12:27;98022.50;;;25.96;31.55
63321;BME280;49449;48.800;9.534;2022-08-18T12:14:59;98015.53;;;25.95;31.70
63321;BME280;49449;48.800;9.534;2022-08-18T12:17:32;98021.06;;;25.99;32.29
63321;BME280;49449;48.800;9.534;2022-08-18T12:19:59;98025.06;;;26.05;31.99
63321;BME280;49449;48.800;9.534;2022-08-18T12:22:29;98029.59;;;26.01;31.70
63321;BME280;49449;48.800;9.534;2022-08-18T12:25:03;98022.91;;;26.11;31.71
63321;BME280;49449;48.800;9.534;2022-08-18T12:27:34;98019.75;;;26.21;31.38
63321;BME280;49449;48.800;9.534;2022-08-18T12:30:05;98014.09;;;26.26;32.29
63321;BME280;49449;48.800;9.534;2022-08-18T12:32:36;98008.00;;;26.29;31.80
63321;BME280;49449;48.800;9.534;2022-08-18T12:35:08;97995.06;;;26.38;31.32
63321;BME280;49449;48.800;9.534;2022-08-18T12:37:42;97988.19;;;26.41;31.53
63321;BME280;49449;48.800;9.534;2022-08-18T12:40:26;97982.88;;;26.44;32.17
63321;BME280;49449;48.800;9.534;2022-08-18T12:42:54;97992.03;;;26.40;31.56
63321;BME280;49449;48.800;9.534;2022-08-18T12:45:23;97983.38;;;26.34;31.16
63321;BME280;49449;48.800;9.534;2022-08-18T12:47:52;97959.94;;;26.26;30.37
63321;BME280;49449;48.800;9.534;2022-08-18T12:50:20;97954.72;;;26.33;30.53
63321;BME280;49449;48.800;9.534;2022-08-18T12:52:48;97948.53;;;26.33;30.37
63321;BME280;49449;48.800;9.534;2022-08-18T12:55:16;97948.13;;;25.90;30.69
63321;BME280;49449;48.800;9.534;2022-08-18T12:57:44;97940.75;;;26.03;31.10
63321;BME280;49449;48.800;9.534;2022-08-18T13:00:13;97927.84;;;26.12;30.84
63321;BME280;49449;48.800;9.534;2022-08-18T13:02:42;97933.41;;;26.32;30.77
63321;BME280;49449;48.800;9.534;2022-08-18T13:05:10;97922.72;;;26.23;31.21
63321;BME280;49449;48.800;9.534;2022-08-18T13:07:38;97922.13;;;26.30;30.81
63321;BME280;49449;48.800;9.534;2022-08-18T13:10:06;97910.97;;;26.31;30.70
63321;BME280;49449;48.800;9.534;2022-08-18T13:12:34;97920.03;;;26.39;30.74
63321;BME280;49449;48.800;9.534;2022-08-18T13:15:03;97920.22;;;26.46;31.20
63321;BME280;49449;48.800;9.534;2022-08-18T13:17:35;97926.19;;;26.52;30.61
63321;BME280;49449;48.800;9.534;2022-08-18T13:20:07;97929.31;;;26.54;30.12
63321;BME280;49449;48.800;9.534;2022-08-18T13:22:37;97927.81;;;26.56;30.12
63321;BME280;49449;48.800;9.534;2022-08-18T13:25:07;97927.22;;;26.63;30.05
63321;BME280;49449;48.800;9.534;2022-08-18T13:27:35;97931.34;;;26.57;30.63
63321;BME280;49449;48.800;9.534;2022-08-18T13:33:56;97921.53;;;26.52;30.33
63321;BME280;49449;48.800;9.534;2022-08-18T13:36:27;97915.00;;;26.53;30.39
63321;BME280;49449;48.800;9.534;2022-08-18T13:39:10;97920.94;;;26.43;29.96
63321;BME280;49449;48.800;9.534;2022-08-18T13:41:38;97922.75;;;26.39;30.09
63321;BME280;49449;48.800;9.534;2022-08-18T13:44:09;97924.50;;;26.31;30.31
63321;BME280;49449;48.800;9.534;2022-08-18T13:46:40;97913.84;;;26.38;29.95
63321;BME280;49449;48.800;9.534;2022-08-18T13:49:12;97915.69;;;26.50;30.25
63321;BME280;49449;48.800;9.534;2022-08-18T13:51:43;97902.94;;;26.51;29.93
63321;BME280;49449;48.800;9.534;2022-08-18T13:54:17;97897.19;;;26.52;29.75
63321;BME280;49449;48.800;9.534;2022-08-18T13:56:55;97907.75;;;26.57;29.93
63321;BME280;49449;48.800;9.534;2022-08-18T13:59:23;97898.03;;;26.56;29.61